Cap Felix — ONFH — position and weather

sailwx.info

Track history (hours):
 
Tides and Currents Weather Stations Pressure Air Temp Water Temp Dewpoint Dewpoint Depression Visibility Wind Speed Wind Dir Waves Ship Positions

Cap Felix

Last reported at 2015-Aug-01 13:33 UTC. Time now 2015-Aug-01 13:50 UTC.
Position N 33°54' W 118°30'.

Length 275 m; draft 16 m.

Type: Tanker. MMSI: 205517000.

Date/timePositionNaut miles runAvg speedWind from/ knotsBaromVisibWave heightAir tempDewpointWater temp
2015-Aug-01 13:33N 33°54' W 118°30'0 0.1
2015-Aug-01 12:33N 33°54' W 118°30'0 0.1
2015-Aug-01 11:33N 33°54' W 118°30'0 0.1
2015-Aug-01 10:33N 33°54' W 118°29'0 0.1
2015-Aug-01 09:33N 33°54' W 118°29'0 0.0
2015-Aug-01 08:33N 33°54' W 118°29'0 0.1
2015-Aug-01 07:33N 33°54' W 118°30'0 0.1
2015-Aug-01 06:33N 33°54' W 118°29'0 0.1
2015-Aug-01 05:33N 33°54' W 118°29'0 0.0
2015-Aug-01 04:33N 33°54' W 118°29'0 0.0
2015-Aug-01 03:33N 33°54' W 118°29'0 0.1
2015-Aug-01 02:33N 33°54' W 118°29'0 0.0
2015-Aug-01 01:33N 33°54' W 118°29'0 0.1
2015-Aug-01 00:33N 33°54' W 118°29'0 0.0
2015-Jul-31 23:33N 33°54' W 118°29'0 0.0
2015-Jul-31 22:33N 33°54' W 118°29'0 0.0
2015-Jul-31 21:33N 33°54' W 118°29'0 0.0
2015-Jul-31 20:33N 33°54' W 118°29'0 0.0
2015-Jul-31 19:33N 33°54' W 118°29'0 0.0
2015-Jul-31 18:33N 33°54' W 118°29'0 0.0
2015-Jul-31 17:33N 33°54' W 118°29'0 0.0
2015-Jul-31 16:33N 33°54' W 118°29'0 0.0
2015-Jul-31 15:33N 33°54' W 118°29'0 0.2
2015-Jul-31 14:33N 33°54' W 118°30'5 3.8
2015-Jul-31 13:08N 33°49' W 118°30'4 7.0
2015-Jul-31 12:33N 33°45' W 118°30'6 6.1
2015-Jul-31 11:33N 33°40' W 118°25'6 6.2
2015-Jul-31 10:33N 33°38' W 118°18'7 6.6
2015-Jul-31 09:33N 33°36' W 118°11'7 6.6
2015-Jul-31 08:33N 33°30' W 118°07'8 7.2
2015-Jul-31 07:30N 33°23' W 118°04'7 7.2
2015-Jul-31 06:33N 33°16' W 118°02'7 7.0
2015-Jul-31 05:33N 33°09' W 117°60'7 7.1
2015-Jul-31 04:33N 33°02' W 117°58'7 7.2
2015-Jul-31 03:33N 32°56' W 117°55'7 7.0
2015-Jul-31 02:33N 32°49' W 117°53'7 6.8
2015-Jul-31 01:33N 32°42' W 117°51'3 2.9
2015-Jul-31 00:33N 32°39' W 117°51'0 0.2
2015-Jul-30 23:33N 32°39' W 117°51'0 0.3
2015-Jul-30 22:33N 32°39' W 117°51'1 0.8
2015-Jul-30 21:33N 32°39' W 117°51'5 5.1
2015-Jul-30 20:33N 32°34' W 117°49'7 6.8
2015-Jul-30 19:33N 32°27' W 117°49'7 6.7
2015-Jul-30 18:33N 32°20' W 117°47'7 7.0
2015-Jul-30 17:33N 32°13' W 117°47'7 7.0
2015-Jul-30 16:33N 32°06' W 117°46'7 6.9
2015-Jul-30 15:33N 31°60' W 117°45'7 7.3
2015-Jul-30 14:33N 31°52' W 117°44'7 7.4
2015-Jul-30 13:33N 31°45' W 117°43'8 7.2
2015-Jul-30 12:28N 31°37' W 117°42'7 7.1
2015-Jul-30 11:33N 31°31' W 117°41'7 6.8
2015-Jul-30 10:29N 31°24' W 117°38'6 6.9
2015-Jul-30 09:33N 31°18' W 117°36'7 6.8
2015-Jul-30 08:33N 31°11' W 117°33'8 6.6
2015-Jul-30 07:24N 31°04' W 117°30'6 6.5
2015-Jul-30 06:33N 30°59' W 117°28'7 6.5
2015-Jul-30 05:33N 30°53' W 117°26'20 6.5
2015-Jul-30 02:29N 30°34' W 117°19'142 6.2
2015-Jul-29 03:33N 28°19' W 116°28'141 5.6
2015-Jul-28 02:30N 26°23' W 114°58'6 5.2
2015-Jul-28 01:22N 26°18' W 114°53'5 5.7
2015-Jul-28 00:33N 26°15' W 114°50'7 6.3
2015-Jul-27 23:24N 26°09' W 114°45'10 8.3
2015-Jul-27 22:14N 26°02' W 114°38'  
Track history (hours):
 
Tides and Currents Weather Stations Pressure Air Temp Water Temp Dewpoint Dewpoint Depression Visibility Wind Speed Wind Dir Waves Ship Positions

Cap Felix

Last reported at 2015-Aug-01 13:33 UTC. Time now 2015-Aug-01 13:50 UTC.
Position N 33°54' W 118°30'.

Length 275 m; draft 16 m.

Type: Tanker. MMSI: 205517000.

Date/timePositionNaut miles runAvg speedWind from/ knotsBaromVisibWave heightAir tempDewpointWater temp
2015-Aug-01 13:33N 33°54' W 118°30'0 0.1
2015-Aug-01 12:33N 33°54' W 118°30'0 0.1
2015-Aug-01 11:33N 33°54' W 118°30'0 0.1
2015-Aug-01 10:33N 33°54' W 118°29'0 0.1
2015-Aug-01 09:33N 33°54' W 118°29'0 0.0
2015-Aug-01 08:33N 33°54' W 118°29'0 0.1
2015-Aug-01 07:33N 33°54' W 118°30'0 0.1
2015-Aug-01 06:33N 33°54' W 118°29'0 0.1
2015-Aug-01 05:33N 33°54' W 118°29'0 0.0
2015-Aug-01 04:33N 33°54' W 118°29'0 0.0
2015-Aug-01 03:33N 33°54' W 118°29'0 0.1
2015-Aug-01 02:33N 33°54' W 118°29'0 0.0
2015-Aug-01 01:33N 33°54' W 118°29'0 0.1
2015-Aug-01 00:33N 33°54' W 118°29'0 0.0
2015-Jul-31 23:33N 33°54' W 118°29'0 0.0
2015-Jul-31 22:33N 33°54' W 118°29'0 0.0
2015-Jul-31 21:33N 33°54' W 118°29'0 0.0
2015-Jul-31 20:33N 33°54' W 118°29'0 0.0
2015-Jul-31 19:33N 33°54' W 118°29'0 0.0
2015-Jul-31 18:33N 33°54' W 118°29'0 0.0
2015-Jul-31 17:33N 33°54' W 118°29'0 0.0
2015-Jul-31 16:33N 33°54' W 118°29'0 0.0
2015-Jul-31 15:33N 33°54' W 118°29'0 0.2
2015-Jul-31 14:33N 33°54' W 118°30'5 3.8
2015-Jul-31 13:08N 33°49' W 118°30'4 7.0
2015-Jul-31 12:33N 33°45' W 118°30'6 6.1
2015-Jul-31 11:33N 33°40' W 118°25'6 6.2
2015-Jul-31 10:33N 33°38' W 118°18'7 6.6
2015-Jul-31 09:33N 33°36' W 118°11'7 6.6
2015-Jul-31 08:33N 33°30' W 118°07'8 7.2
2015-Jul-31 07:30N 33°23' W 118°04'7 7.2
2015-Jul-31 06:33N 33°16' W 118°02'7 7.0
2015-Jul-31 05:33N 33°09' W 117°60'7 7.1
2015-Jul-31 04:33N 33°02' W 117°58'7 7.2
2015-Jul-31 03:33N 32°56' W 117°55'7 7.0
2015-Jul-31 02:33N 32°49' W 117°53'7 6.8
2015-Jul-31 01:33N 32°42' W 117°51'3 2.9
2015-Jul-31 00:33N 32°39' W 117°51'0 0.2
2015-Jul-30 23:33N 32°39' W 117°51'0 0.3
2015-Jul-30 22:33N 32°39' W 117°51'1 0.8
2015-Jul-30 21:33N 32°39' W 117°51'5 5.1
2015-Jul-30 20:33N 32°34' W 117°49'7 6.8
2015-Jul-30 19:33N 32°27' W 117°49'7 6.7
2015-Jul-30 18:33N 32°20' W 117°47'7 7.0
2015-Jul-30 17:33N 32°13' W 117°47'7 7.0
2015-Jul-30 16:33N 32°06' W 117°46'7 6.9
2015-Jul-30 15:33N 31°60' W 117°45'7 7.3
2015-Jul-30 14:33N 31°52' W 117°44'7 7.4
2015-Jul-30 13:33N 31°45' W 117°43'8 7.2
2015-Jul-30 12:28N 31°37' W 117°42'7 7.1
2015-Jul-30 11:33N 31°31' W 117°41'7 6.8
2015-Jul-30 10:29N 31°24' W 117°38'6 6.9
2015-Jul-30 09:33N 31°18' W 117°36'7 6.8
2015-Jul-30 08:33N 31°11' W 117°33'8 6.6
2015-Jul-30 07:24N 31°04' W 117°30'6 6.5
2015-Jul-30 06:33N 30°59' W 117°28'7 6.5
2015-Jul-30 05:33N 30°53' W 117°26'20 6.5
2015-Jul-30 02:29N 30°34' W 117°19'142 6.2
2015-Jul-29 03:33N 28°19' W 116°28'141 5.6
2015-Jul-28 02:30N 26°23' W 114°58'6 5.2
2015-Jul-28 01:22N 26°18' W 114°53'5 5.7
2015-Jul-28 00:33N 26°15' W 114°50'7 6.3
2015-Jul-27 23:24N 26°09' W 114°45'10 8.3
2015-Jul-27 22:14N 26°02' W 114°38'  

Dump ship's entire track history